sensor_id;sensor_type;location;lat;lon;timestamp;temperature;humidity
69006;SHT31;56061;51.748;19.620;2022-12-26T00:00:29;5.41;90.03
69006;SHT31;56061;51.748;19.620;2022-12-26T00:02:56;5.44;90.10
69006;SHT31;56061;51.748;19.620;2022-12-26T00:05:23;5.45;90.16
69006;SHT31;56061;51.748;19.620;2022-12-26T00:07:49;5.44;90.13
69006;SHT31;56061;51.748;19.620;2022-12-26T00:10:16;5.42;90.10
69006;SHT31;56061;51.748;19.620;2022-12-26T00:12:42;5.41;90.10
69006;SHT31;56061;51.748;19.620;2022-12-26T00:15:09;5.40;90.14
69006;SHT31;56061;51.748;19.620;2022-12-26T00:17:36;5.41;90.20
69006;SHT31;56061;51.748;19.620;2022-12-26T00:20:02;5.41;90.20
69006;SHT31;56061;51.748;19.620;2022-12-26T00:22:29;5.43;90.20
69006;SHT31;56061;51.748;19.620;2022-12-26T00:24:56;5.43;90.18
69006;SHT31;56061;51.748;19.620;2022-12-26T00:27:22;5.42;90.23
69006;SHT31;56061;51.748;19.620;2022-12-26T00:29:49;5.42;90.30
69006;SHT31;56061;51.748;19.620;2022-12-26T00:32:15;5.42;90.23
69006;SHT31;56061;51.748;19.620;2022-12-26T00:34:42;5.42;90.30
69006;SHT31;56061;51.748;19.620;2022-12-26T00:37:08;5.43;90.30
69006;SHT31;56061;51.748;19.620;2022-12-26T00:39:35;5.43;90.24
69006;SHT31;56061;51.748;19.620;2022-12-26T00:42:01;5.45;90.30
69006;SHT31;56061;51.748;19.620;2022-12-26T00:44:28;5.45;90.30
69006;SHT31;56061;51.748;19.620;2022-12-26T00:46:54;5.46;90.33
69006;SHT31;56061;51.748;19.620;2022-12-26T00:49:21;5.44;90.33
69006;SHT31;56061;51.748;19.620;2022-12-26T00:51:47;5.43;90.30
69006;SHT31;56061;51.748;19.620;2022-12-26T00:54:13;5.43;90.30
69006;SHT31;56061;51.748;19.620;2022-12-26T00:56:40;5.43;90.33
69006;SHT31;56061;51.748;19.620;2022-12-26T00:59:06;5.45;90.36
69006;SHT31;56061;51.748;19.620;2022-12-26T01:01:33;5.46;90.40
69006;SHT31;56061;51.748;19.620;2022-12-26T01:04:00;5.46;90.36
69006;SHT31;56061;51.748;19.620;2022-12-26T01:06:26;5.45;90.37
69006;SHT31;56061;51.748;19.620;2022-12-26T01:08:53;5.43;90.40
69006;SHT31;56061;51.748;19.620;2022-12-26T01:11:20;5.42;90.41
69006;SHT31;56061;51.748;19.620;2022-12-26T01:14:08;5.40;90.40
69006;SHT31;56061;51.748;19.620;2022-12-26T01:16:41;5.39;90.39
69006;SHT31;56061;51.748;19.620;2022-12-26T01:19:09;5.39;90.40
69006;SHT31;56061;51.748;19.620;2022-12-26T01:21:38;5.40;90.46
69006;SHT31;56061;51.748;19.620;2022-12-26T01:24:06;5.43;90.49
69006;SHT31;56061;51.748;19.620;2022-12-26T01:26:32;5.46;90.50
69006;SHT31;56061;51.748;19.620;2022-12-26T01:28:59;5.48;90.51
69006;SHT31;56061;51.748;19.620;2022-12-26T01:31:25;5.49;90.41
69006;SHT31;56061;51.748;19.620;2022-12-26T01:33:52;5.47;90.33
69006;SHT31;56061;51.748;19.620;2022-12-26T01:36:18;5.46;90.35
69006;SHT31;56061;51.748;19.620;2022-12-26T01:38:45;5.47;90.32
69006;SHT31;56061;51.748;19.620;2022-12-26T01:41:12;5.47;90.31
69006;SHT31;56061;51.748;19.620;2022-12-26T01:46:21;5.51;90.29
69006;SHT31;56061;51.748;19.620;2022-12-26T01:49:49;5.51;90.30
69006;SHT31;56061;51.748;19.620;2022-12-26T01:52:03;5.50;90.30
69006;SHT31;56061;51.748;19.620;2022-12-26T01:54:37;5.49;90.31
69006;SHT31;56061;51.748;19.620;2022-12-26T01:57:09;5.46;90.30
69006;SHT31;56061;51.748;19.620;2022-12-26T01:59:44;5.47;90.33
69006;SHT31;56061;51.748;19.620;2022-12-26T02:02:12;5.49;90.40
69006;SHT31;56061;51.748;19.620;2022-12-26T02:04:42;5.53;90.31
69006;SHT31;56061;51.748;19.620;2022-12-26T02:07:33;5.55;90.26
69006;SHT31;56061;51.748;19.620;2022-12-26T02:10:03;5.56;90.24
69006;SHT31;56061;51.748;19.620;2022-12-26T02:12:30;5.58;90.30
69006;SHT31;56061;51.748;19.620;2022-12-26T02:15:07;5.58;90.23
69006;SHT31;56061;51.748;19.620;2022-12-26T02:17:39;5.56;90.21
69006;SHT31;56061;51.748;19.620;2022-12-26T02:28:49;5.54;90.28
69006;SHT31;56061;51.748;19.620;2022-12-26T02:40:54;5.58;90.29
69006;SHT31;56061;51.748;19.620;2022-12-26T02:46:51;5.56;90.25
69006;SHT31;56061;51.748;19.620;2022-12-26T02:49:45;5.56;90.24
69006;SHT31;56061;51.748;19.620;2022-12-26T02:55:43;5.61;90.30
69006;SHT31;56061;51.748;19.620;2022-12-26T02:58:35;5.63;90.25
69006;SHT31;56061;51.748;19.620;2022-12-26T03:01:33;5.61;90.14
69006;SHT31;56061;51.748;19.620;2022-12-26T03:04:25;5.57;90.17
69006;SHT31;56061;51.748;19.620;2022-12-26T03:07:15;5.56;90.20
69006;SHT31;56061;51.748;19.620;2022-12-26T03:10:18;5.57;90.23
69006;SHT31;56061;51.748;19.620;2022-12-26T03:13:10;5.60;90.21
69006;SHT31;56061;51.748;19.620;2022-12-26T03:15:49;5.61;90.18
69006;SHT31;56061;51.748;19.620;2022-12-26T03:18:42;5.63;90.22
69006;SHT31;56061;51.748;19.620;2022-12-26T03:21:26;5.64;90.20
69006;SHT31;56061;51.748;19.620;2022-12-26T03:24:00;5.64;90.12
69006;SHT31;56061;51.748;19.620;2022-12-26T03:26:28;5.62;90.12
69006;SHT31;56061;51.748;19.620;2022-12-26T03:29:07;5.60;90.10
69006;SHT31;56061;51.748;19.620;2022-12-26T03:31:59;5.60;90.10
69006;SHT31;56061;51.748;19.620;2022-12-26T03:34:27;5.60;90.13
69006;SHT31;56061;51.748;19.620;2022-12-26T03:36:57;5.61;90.13
69006;SHT31;56061;51.748;19.620;2022-12-26T03:39:44;5.62;90.15
69006;SHT31;56061;51.748;19.620;2022-12-26T03:49:27;5.57;90.05
69006;SHT31;56061;51.748;19.620;2022-12-26T03:53:02;5.55;90.14
69006;SHT31;56061;51.748;19.620;2022-12-26T03:55:54;5.56;90.20
69006;SHT31;56061;51.748;19.620;2022-12-26T03:59:15;5.56;90.13
69006;SHT31;56061;51.748;19.620;2022-12-26T04:02:09;5.59;90.20
69006;SHT31;56061;51.748;19.620;2022-12-26T04:04:57;5.63;90.21
69006;SHT31;56061;51.748;19.620;2022-12-26T04:07:49;5.65;90.11
69006;SHT31;56061;51.748;19.620;2022-12-26T04:10:46;5.66;90.11
69006;SHT31;56061;51.748;19.620;2022-12-26T04:13:44;5.68;90.13
69006;SHT31;56061;51.748;19.620;2022-12-26T04:16:53;5.65;90.08
69006;SHT31;56061;51.748;19.620;2022-12-26T04:19:52;5.63;90.03
69006;SHT31;56061;51.748;19.620;2022-12-26T04:22:48;5.61;90.03
69006;SHT31;56061;51.748;19.620;2022-12-26T04:25:43;5.58;90.00
69006;SHT31;56061;51.748;19.620;2022-12-26T04:28:35;5.58;90.04
69006;SHT31;56061;51.748;19.620;2022-12-26T04:31:26;5.60;90.10
69006;SHT31;56061;51.748;19.620;2022-12-26T04:34:21;5.61;90.09
69006;SHT31;56061;51.748;19.620;2022-12-26T04:37:18;5.64;90.10
69006;SHT31;56061;51.748;19.620;2022-12-26T04:40:11;5.63;90.08
69006;SHT31;56061;51.748;19.620;2022-12-26T04:43:08;5.61;90.03
69006;SHT31;56061;51.748;19.620;2022-12-26T04:46:15;5.58;90.01
69006;SHT31;56061;51.748;19.620;2022-12-26T04:48:43;5.55;90.06
69006;SHT31;56061;51.748;19.620;2022-12-26T04:51:31;5.55;90.13
69006;SHT31;56061;51.748;19.620;2022-12-26T04:53:58;5.59;90.21
69006;SHT31;56061;51.748;19.620;2022-12-26T04:56:25;5.61;90.14
69006;SHT31;56061;51.748;19.620;2022-12-26T04:58:51;5.62;90.10
69006;SHT31;56061;51.748;19.620;2022-12-26T05:01:18;5.63;90.13
69006;SHT31;56061;51.748;19.620;2022-12-26T05:04:03;5.65;90.14
69006;SHT31;56061;51.748;19.620;2022-12-26T05:06:48;5.64;90.18
69006;SHT31;56061;51.748;19.620;2022-12-26T05:09:33;5.64;90.17
69006;SHT31;56061;51.748;19.620;2022-12-26T05:12:01;5.65;90.20
69006;SHT31;56061;51.748;19.620;2022-12-26T05:14:34;5.67;90.18
69006;SHT31;56061;51.748;19.620;2022-12-26T05:17:02;5.69;90.19
69006;SHT31;56061;51.748;19.620;2022-12-26T05:19:51;5.72;90.15
69006;SHT31;56061;51.748;19.620;2022-12-26T05:22:37;5.73;90.07
69006;SHT31;56061;51.748;19.620;2022-12-26T05:25:28;5.71;90.03
69006;SHT31;56061;51.748;19.620;2022-12-26T05:28:17;5.67;90.09
69006;SHT31;56061;51.748;19.620;2022-12-26T05:31:03;5.65;90.15
69006;SHT31;56061;51.748;19.620;2022-12-26T05:33:30;5.62;90.19
69006;SHT31;56061;51.748;19.620;2022-12-26T05:36:16;5.61;90.17
69006;SHT31;56061;51.748;19.620;2022-12-26T05:38:46;5.60;90.20
69006;SHT31;56061;51.748;19.620;2022-12-26T05:41:14;5.60;90.26
69006;SHT31;56061;51.748;19.620;2022-12-26T05:43:41;5.60;90.26
69006;SHT31;56061;51.748;19.620;2022-12-26T05:46:08;5.61;90.31
69006;SHT31;56061;51.748;19.620;2022-12-26T05:48:35;5.63;90.34
69006;SHT31;56061;51.748;19.620;2022-12-26T05:51:01;5.63;90.38
69006;SHT31;56061;51.748;19.620;2022-12-26T05:53:30;5.63;90.40
69006;SHT31;56061;51.748;19.620;2022-12-26T05:56:01;5.63;90.42
69006;SHT31;56061;51.748;19.620;2022-12-26T05:58:32;5.64;90.50
69006;SHT31;56061;51.748;19.620;2022-12-26T06:01:18;5.65;90.58
69006;SHT31;56061;51.748;19.620;2022-12-26T06:03:47;5.67;90.60
69006;SHT31;56061;51.748;19.620;2022-12-26T06:06:17;5.71;90.61
69006;SHT31;56061;51.748;19.620;2022-12-26T06:08:46;5.75;90.61
69006;SHT31;56061;51.748;19.620;2022-12-26T06:11:15;5.78;90.61
69006;SHT31;56061;51.748;19.620;2022-12-26T06:13:42;5.81;90.64
69006;SHT31;56061;51.748;19.620;2022-12-26T06:16:11;5.82;90.60
69006;SHT31;56061;51.748;19.620;2022-12-26T06:18:41;5.83;90.59
69006;SHT31;56061;51.748;19.620;2022-12-26T06:21:09;5.83;90.62
69006;SHT31;56061;51.748;19.620;2022-12-26T06:23:39;5.82;90.64
69006;SHT31;56061;51.748;19.620;2022-12-26T06:26:07;5.81;90.69
69006;SHT31;56061;51.748;19.620;2022-12-26T06:28:35;5.82;90.74
69006;SHT31;56061;51.748;19.620;2022-12-26T06:31:07;5.83;90.76
69006;SHT31;56061;51.748;19.620;2022-12-26T06:33:41;5.83;90.70
69006;SHT31;56061;51.748;19.620;2022-12-26T06:36:09;5.86;90.76
69006;SHT31;56061;51.748;19.620;2022-12-26T06:38:38;5.88;90.80
69006;SHT31;56061;51.748;19.620;2022-12-26T06:41:07;5.91;90.85
69006;SHT31;56061;51.748;19.620;2022-12-26T06:43:36;5.93;90.90
69006;SHT31;56061;51.748;19.620;2022-12-26T06:46:04;5.96;91.00
69006;SHT31;56061;51.748;19.620;2022-12-26T06:48:33;5.97;91.03
69006;SHT31;56061;51.748;19.620;2022-12-26T06:51:15;5.98;91.06
69006;SHT31;56061;51.748;19.620;2022-12-26T06:53:45;6.00;91.04
69006;SHT31;56061;51.748;19.620;2022-12-26T06:56:18;6.03;91.00
69006;SHT31;56061;51.748;19.620;2022-12-26T06:58:51;6.05;91.00
69006;SHT31;56061;51.748;19.620;2022-12-26T07:01:23;6.08;91.00
69006;SHT31;56061;51.748;19.620;2022-12-26T07:03:52;6.12;91.03
69006;SHT31;56061;51.748;19.620;2022-12-26T07:06:23;6.17;91.04
69006;SHT31;56061;51.748;19.620;2022-12-26T07:08:57;6.24;91.06
69006;SHT31;56061;51.748;19.620;2022-12-26T07:11:31;6.28;91.03
69006;SHT31;56061;51.748;19.620;2022-12-26T07:14:01;6.32;91.03
69006;SHT31;56061;51.748;19.620;2022-12-26T07:16:28;6.34;91.01
69006;SHT31;56061;51.748;19.620;2022-12-26T07:18:55;6.37;91.03
69006;SHT31;56061;51.748;19.620;2022-12-26T07:21:23;6.41;91.10
69006;SHT31;56061;51.748;19.620;2022-12-26T07:23:51;6.46;91.12
69006;SHT31;56061;51.748;19.620;2022-12-26T07:26:20;6.51;91.14
69006;SHT31;56061;51.748;19.620;2022-12-26T07:28:51;6.58;91.18
69006;SHT31;56061;51.748;19.620;2022-12-26T07:31:21;6.65;91.13
69006;SHT31;56061;51.748;19.620;2022-12-26T07:33:51;6.72;91.17
69006;SHT31;56061;51.748;19.620;2022-12-26T07:36:20;6.81;91.21
69006;SHT31;56061;51.748;19.620;2022-12-26T07:38:48;6.89;91.24
69006;SHT31;56061;51.748;19.620;2022-12-26T07:41:15;6.96;91.25
69006;SHT31;56061;51.748;19.620;2022-12-26T07:44:08;7.04;91.32
69006;SHT31;56061;51.748;19.620;2022-12-26T07:46:36;7.10;91.32
69006;SHT31;56061;51.748;19.620;2022-12-26T07:49:03;7.18;91.28
69006;SHT31;56061;51.748;19.620;2022-12-26T07:51:30;7.26;91.28
69006;SHT31;56061;51.748;19.620;2022-12-26T07:53:56;7.33;91.21
69006;SHT31;56061;51.748;19.620;2022-12-26T07:56:23;7.42;91.20
69006;SHT31;56061;51.748;19.620;2022-12-26T07:58:50;7.52;91.13
69006;SHT31;56061;51.748;19.620;2022-12-26T08:01:17;7.63;91.09
69006;SHT31;56061;51.748;19.620;2022-12-26T08:03:46;7.74;90.95
69006;SHT31;56061;51.748;19.620;2022-12-26T08:06:15;7.84;90.86
69006;SHT31;56061;51.748;19.620;2022-12-26T08:08:43;7.93;90.76
69006;SHT31;56061;51.748;19.620;2022-12-26T08:11:17;7.99;90.60
69006;SHT31;56061;51.748;19.620;2022-12-26T08:13:47;8.04;90.45
69006;SHT31;56061;51.748;19.620;2022-12-26T08:16:14;8.12;90.41
69006;SHT31;56061;51.748;19.620;2022-12-26T08:18:41;8.23;90.40
69006;SHT31;56061;51.748;19.620;2022-12-26T08:21:08;8.35;90.34
69006;SHT31;56061;51.748;19.620;2022-12-26T08:23:37;8.47;90.23
69006;SHT31;56061;51.748;19.620;2022-12-26T08:26:04;8.57;90.15
69006;SHT31;56061;51.748;19.620;2022-12-26T08:28:34;8.66;89.96
69006;SHT31;56061;51.748;19.620;2022-12-26T08:31:05;8.73;89.71
69006;SHT31;56061;51.748;19.620;2022-12-26T08:33:33;8.78;89.65
69006;SHT31;56061;51.748;19.620;2022-12-26T08:36:04;8.82;89.57
69006;SHT31;56061;51.748;19.620;2022-12-26T08:38:35;8.86;89.46
69006;SHT31;56061;51.748;19.620;2022-12-26T08:41:02;8.91;89.32
69006;SHT31;56061;51.748;19.620;2022-12-26T08:43:28;8.95;89.14
69006;SHT31;56061;51.748;19.620;2022-12-26T08:46:15;9.00;89.03
69006;SHT31;56061;51.748;19.620;2022-12-26T08:48:44;9.06;88.99
69006;SHT31;56061;51.748;19.620;2022-12-26T08:51:13;9.09;88.87
69006;SHT31;56061;51.748;19.620;2022-12-26T08:53:47;9.10;88.73
69006;SHT31;56061;51.748;19.620;2022-12-26T08:56:19;9.11;88.58
69006;SHT31;56061;51.748;19.620;2022-12-26T08:58:50;9.13;88.56
69006;SHT31;56061;51.748;19.620;2022-12-26T09:01:18;9.14;88.47
69006;SHT31;56061;51.748;19.620;2022-12-26T09:03:50;9.17;88.43
69006;SHT31;56061;51.748;19.620;2022-12-26T09:06:19;9.19;88.32
69006;SHT31;56061;51.748;19.620;2022-12-26T09:08:47;9.22;88.26
69006;SHT31;56061;51.748;19.620;2022-12-26T09:11:15;9.27;88.27
69006;SHT31;56061;51.748;19.620;2022-12-26T09:13:46;9.30;88.18
69006;SHT31;56061;51.748;19.620;2022-12-26T09:16:14;9.31;88.09
69006;SHT31;56061;51.748;19.620;2022-12-26T09:18:45;9.31;87.93
69006;SHT31;56061;51.748;19.620;2022-12-26T09:21:13;9.29;87.80
69006;SHT31;56061;51.748;19.620;2022-12-26T09:23:41;9.29;87.80
69006;SHT31;56061;51.748;19.620;2022-12-26T09:26:09;9.30;87.68
69006;SHT31;56061;51.748;19.620;2022-12-26T09:28:39;9.31;87.72
69006;SHT31;56061;51.748;19.620;2022-12-26T09:31:11;9.33;87.57
69006;SHT31;56061;51.748;19.620;2022-12-26T09:33:41;9.36;87.64
69006;SHT31;56061;51.748;19.620;2022-12-26T09:36:09;9.39;87.53
69006;SHT31;56061;51.748;19.620;2022-12-26T09:38:41;9.41;87.51
69006;SHT31;56061;51.748;19.620;2022-12-26T09:52:30;9.54;87.17
69006;SHT31;56061;51.748;19.620;2022-12-26T09:55:45;9.62;87.11
69006;SHT31;56061;51.748;19.620;2022-12-26T09:58:24;9.69;86.99
69006;SHT31;56061;51.748;19.620;2022-12-26T10:03:51;9.79;86.67
69006;SHT31;56061;51.748;19.620;2022-12-26T10:06:24;9.84;86.71
69006;SHT31;56061;51.748;19.620;2022-12-26T10:11:37;9.95;86.65
69006;SHT31;56061;51.748;19.620;2022-12-26T10:31:39;10.27;85.67
69006;SHT31;56061;51.748;19.620;2022-12-26T10:37:19;10.37;85.45
69006;SHT31;56061;51.748;19.620;2022-12-26T10:45:17;10.42;85.01
69006;SHT31;56061;51.748;19.620;2022-12-26T10:48:13;10.43;85.12
69006;SHT31;56061;51.748;19.620;2022-12-26T10:50:46;10.47;85.15
69006;SHT31;56061;51.748;19.620;2022-12-26T10:53:15;10.46;84.94
69006;SHT31;56061;51.748;19.620;2022-12-26T10:55:43;10.47;84.99
69006;SHT31;56061;51.748;19.620;2022-12-26T10:58:13;10.47;85.03
69006;SHT31;56061;51.748;19.620;2022-12-26T11:00:47;10.48;84.88
69006;SHT31;56061;51.748;19.620;2022-12-26T11:03:15;10.47;84.89
69006;SHT31;56061;51.748;19.620;2022-12-26T11:05:45;10.49;84.90
69006;SHT31;56061;51.748;19.620;2022-12-26T11:08:36;10.50;84.88
69006;SHT31;56061;51.748;19.620;2022-12-26T11:11:12;10.53;84.90
69006;SHT31;56061;51.748;19.620;2022-12-26T11:13:51;10.56;84.82
69006;SHT31;56061;51.748;19.620;2022-12-26T11:16:34;10.56;84.76
69006;SHT31;56061;51.748;19.620;2022-12-26T11:19:05;10.57;84.66
69006;SHT31;56061;51.748;19.620;2022-12-26T11:21:32;10.57;84.71
69006;SHT31;56061;51.748;19.620;2022-12-26T11:26:35;10.65;84.57
69006;SHT31;56061;51.748;19.620;2022-12-26T11:29:04;10.71;84.47
69006;SHT31;56061;51.748;19.620;2022-12-26T11:31:49;10.79;84.38
69006;SHT31;56061;51.748;19.620;2022-12-26T11:34:31;10.85;84.14
69006;SHT31;56061;51.748;19.620;2022-12-26T11:37:02;10.93;84.15
69006;SHT31;56061;51.748;19.620;2022-12-26T11:39:32;10.98;84.03
69006;SHT31;56061;51.748;19.620;2022-12-26T11:42:09;11.08;83.88
69006;SHT31;56061;51.748;19.620;2022-12-26T11:44:40;11.20;83.91
69006;SHT31;56061;51.748;19.620;2022-12-26T11:47:11;11.30;83.77
69006;SHT31;56061;51.748;19.620;2022-12-26T11:49:45;11.39;83.55
69006;SHT31;56061;51.748;19.620;2022-12-26T11:55:33;11.54;83.30
69006;SHT31;56061;51.748;19.620;2022-12-26T12:03:16;11.53;82.66
69006;SHT31;56061;51.748;19.620;2022-12-26T12:05:52;11.47;82.36
69006;SHT31;56061;51.748;19.620;2022-12-26T12:17:38;11.37;82.43
69006;SHT31;56061;51.748;19.620;2022-12-26T12:26:25;11.40;82.21
69006;SHT31;56061;51.748;19.620;2022-12-26T12:29:04;11.42;82.08
69006;SHT31;56061;51.748;19.620;2022-12-26T12:32:05;11.48;82.17
69006;SHT31;56061;51.748;19.620;2022-12-26T12:43:36;11.57;81.53
69006;SHT31;56061;51.748;19.620;2022-12-26T12:46:19;11.61;81.69
69006;SHT31;56061;51.748;19.620;2022-12-26T12:52:11;11.65;81.51
69006;SHT31;56061;51.748;19.620;2022-12-26T12:58:03;11.60;81.52
69006;SHT31;56061;51.748;19.620;2022-12-26T13:00:45;11.54;81.34
69006;SHT31;56061;51.748;19.620;2022-12-26T13:06:15;11.41;81.75
69006;SHT31;56061;51.748;19.620;2022-12-26T13:08:57;11.38;81.85
69006;SHT31;56061;51.748;19.620;2022-12-26T13:11:51;11.34;81.78
69006;SHT31;56061;51.748;19.620;2022-12-26T13:14:25;11.31;81.83
69006;SHT31;56061;51.748;19.620;2022-12-26T13:17:04;11.29;81.96
69006;SHT31;56061;51.748;19.620;2022-12-26T13:19:39;11.28;82.08
69006;SHT31;56061;51.748;19.620;2022-12-26T13:22:24;11.28;82.06
69006;SHT31;56061;51.748;19.620;2022-12-26T13:25:17;11.26;82.13
69006;SHT31;56061;51.748;19.620;2022-12-26T13:27:45;11.23;82.13
69006;SHT31;56061;51.748;19.620;2022-12-26T13:30:15;11.20;82.08
69006;SHT31;56061;51.748;19.620;2022-12-26T13:32:43;11.15;82.11
69006;SHT31;56061;51.748;19.620;2022-12-26T13:38:24;11.09;82.32
69006;SHT31;56061;51.748;19.620;2022-12-26T13:41:34;11.06;82.32
69006;SHT31;56061;51.748;19.620;2022-12-26T13:49:56;10.94;82.55
69006;SHT31;56061;51.748;19.620;2022-12-26T13:55:18;10.83;82.71
69006;SHT31;56061;51.748;19.620;2022-12-26T13:58:05;10.74;82.87
69006;SHT31;56061;51.748;19.620;2022-12-26T14:12:56;10.68;83.41
69006;SHT31;56061;51.748;19.620;2022-12-26T14:15:51;10.65;83.39
69006;SHT31;56061;51.748;19.620;2022-12-26T14:18:34;10.61;83.49
69006;SHT31;56061;51.748;19.620;2022-12-26T14:21:21;10.56;83.57
69006;SHT31;56061;51.748;19.620;2022-12-26T14:30:20;10.53;83.72
69006;SHT31;56061;51.748;19.620;2022-12-26T14:39:08;10.47;83.84
69006;SHT31;56061;51.748;19.620;2022-12-26T14:44:50;10.41;84.00
69006;SHT31;56061;51.748;19.620;2022-12-26T14:50:33;10.36;84.09
69006;SHT31;56061;51.748;19.620;2022-12-26T14:53:16;10.38;84.10
69006;SHT31;56061;51.748;19.620;2022-12-26T14:55:53;10.40;84.16
69006;SHT31;56061;51.748;19.620;2022-12-26T14:58:42;10.41;84.06
69006;SHT31;56061;51.748;19.620;2022-12-26T15:13:01;10.42;83.91
69006;SHT31;56061;51.748;19.620;2022-12-26T15:19:42;10.38;83.98
69006;SHT31;56061;51.748;19.620;2022-12-26T15:22:31;10.39;83.98
69006;SHT31;56061;51.748;19.620;2022-12-26T15:25:40;10.41;83.99
69006;SHT31;56061;51.748;19.620;2022-12-26T15:39:47;10.31;84.00
69006;SHT31;56061;51.748;19.620;2022-12-26T15:45:28;10.27;84.13
69006;SHT31;56061;51.748;19.620;2022-12-26T15:51:12;10.20;84.30
69006;SHT31;56061;51.748;19.620;2022-12-26T15:53:55;10.16;84.45
69006;SHT31;56061;51.748;19.620;2022-12-26T15:57:01;10.11;84.54
69006;SHT31;56061;51.748;19.620;2022-12-26T16:02:46;10.03;84.78
69006;SHT31;56061;51.748;19.620;2022-12-26T16:11:29;9.98;84.92
69006;SHT31;56061;51.748;19.620;2022-12-26T16:14:22;9.98;85.00
69006;SHT31;56061;51.748;19.620;2022-12-26T16:19:41;9.95;85.06
69006;SHT31;56061;51.748;19.620;2022-12-26T16:22:13;9.95;85.15
69006;SHT31;56061;51.748;19.620;2022-12-26T16:25:14;9.94;85.20
69006;SHT31;56061;51.748;19.620;2022-12-26T16:27:48;9.97;85.22
69006;SHT31;56061;51.748;19.620;2022-12-26T16:30:21;10.00;85.27
69006;SHT31;56061;51.748;19.620;2022-12-26T16:32:52;10.04;85.30
69006;SHT31;56061;51.748;19.620;2022-12-26T16:35:21;10.08;85.34
69006;SHT31;56061;51.748;19.620;2022-12-26T16:37:53;10.10;85.45
69006;SHT31;56061;51.748;19.620;2022-12-26T16:40:26;10.12;85.50
69006;SHT31;56061;51.748;19.620;2022-12-26T16:45:49;10.12;85.67
69006;SHT31;56061;51.748;19.620;2022-12-26T16:48:20;10.12;85.91
69006;SHT31;56061;51.748;19.620;2022-12-26T16:50:51;10.12;86.13
69006;SHT31;56061;51.748;19.620;2022-12-26T16:56:48;10.11;86.55
69006;SHT31;56061;51.748;19.620;2022-12-26T16:59:20;10.08;86.73
69006;SHT31;56061;51.748;19.620;2022-12-26T17:01:51;10.06;86.86
69006;SHT31;56061;51.748;19.620;2022-12-26T17:04:25;10.03;87.04
69006;SHT31;56061;51.748;19.620;2022-12-26T17:07:01;9.98;87.20
69006;SHT31;56061;51.748;19.620;2022-12-26T17:09:42;9.92;87.36
69006;SHT31;56061;51.748;19.620;2022-12-26T17:12:26;9.88;87.53
69006;SHT31;56061;51.748;19.620;2022-12-26T17:14:59;9.84;87.69
69006;SHT31;56061;51.748;19.620;2022-12-26T17:17:30;9.81;87.82
69006;SHT31;56061;51.748;19.620;2022-12-26T17:22:50;9.77;88.10
69006;SHT31;56061;51.748;19.620;2022-12-26T17:25:31;9.76;88.17
69006;SHT31;56061;51.748;19.620;2022-12-26T17:30:40;9.72;88.38
69006;SHT31;56061;51.748;19.620;2022-12-26T17:33:17;9.70;88.52
69006;SHT31;56061;51.748;19.620;2022-12-26T17:35:54;9.66;88.61
69006;SHT31;56061;51.748;19.620;2022-12-26T17:38:48;9.63;88.68
69006;SHT31;56061;51.748;19.620;2022-12-26T17:41:15;9.62;88.70
69006;SHT31;56061;51.748;19.620;2022-12-26T17:43:43;9.62;88.79
69006;SHT31;56061;51.748;19.620;2022-12-26T17:46:12;9.63;88.85
69006;SHT31;56061;51.748;19.620;2022-12-26T17:48:42;9.65;88.90
69006;SHT31;56061;51.748;19.620;2022-12-26T17:51:11;9.65;89.01
69006;SHT31;56061;51.748;19.620;2022-12-26T17:53:43;9.64;88.99
69006;SHT31;56061;51.748;19.620;2022-12-26T17:56:17;9.62;88.99
69006;SHT31;56061;51.748;19.620;2022-12-26T17:58:47;9.61;89.04
69006;SHT31;56061;51.748;19.620;2022-12-26T18:01:15;9.61;89.05
69006;SHT31;56061;51.748;19.620;2022-12-26T18:03:47;9.61;89.06
69006;SHT31;56061;51.748;19.620;2022-12-26T18:06:14;9.61;89.09
69006;SHT31;56061;51.748;19.620;2022-12-26T18:08:42;9.62;89.10
69006;SHT31;56061;51.748;19.620;2022-12-26T18:11:10;9.63;89.11
69006;SHT31;56061;51.748;19.620;2022-12-26T18:13:39;9.64;89.18
69006;SHT31;56061;51.748;19.620;2022-12-26T18:16:09;9.64;89.21
69006;SHT31;56061;51.748;19.620;2022-12-26T18:18:42;9.61;89.19
69006;SHT31;56061;51.748;19.620;2022-12-26T18:21:11;9.59;89.24
69006;SHT31;56061;51.748;19.620;2022-12-26T18:23:40;9.58;89.29
69006;SHT31;56061;51.748;19.620;2022-12-26T18:26:11;9.57;89.32
69006;SHT31;56061;51.748;19.620;2022-12-26T18:28:51;9.55;89.30
69006;SHT31;56061;51.748;19.620;2022-12-26T18:31:19;9.54;89.30
69006;SHT31;56061;51.748;19.620;2022-12-26T18:33:46;9.53;89.36
69006;SHT31;56061;51.748;19.620;2022-12-26T18:36:13;9.52;89.37
69006;SHT31;56061;51.748;19.620;2022-12-26T18:38:41;9.51;89.42
69006;SHT31;56061;51.748;19.620;2022-12-26T18:41:12;9.49;89.43
69006;SHT31;56061;51.748;19.620;2022-12-26T18:43:40;9.46;89.32
69006;SHT31;56061;51.748;19.620;2022-12-26T18:46:20;9.43;89.22
69006;SHT31;56061;51.748;19.620;2022-12-26T18:48:50;9.41;89.20
69006;SHT31;56061;51.748;19.620;2022-12-26T18:51:22;9.40;89.19
69006;SHT31;56061;51.748;19.620;2022-12-26T18:53:50;9.39;89.28
69006;SHT31;56061;51.748;19.620;2022-12-26T18:56:18;9.39;89.29
69006;SHT31;56061;51.748;19.620;2022-12-26T18:58:48;9.38;89.23
69006;SHT31;56061;51.748;19.620;2022-12-26T19:01:23;9.37;89.22
69006;SHT31;56061;51.748;19.620;2022-12-26T19:03:51;9.35;89.20
69006;SHT31;56061;51.748;19.620;2022-12-26T19:06:20;9.33;89.16
69006;SHT31;56061;51.748;19.620;2022-12-26T19:08:50;9.30;89.17
69006;SHT31;56061;51.748;19.620;2022-12-26T19:11:17;9.26;89.18
69006;SHT31;56061;51.748;19.620;2022-12-26T19:13:43;9.21;89.18
69006;SHT31;56061;51.748;19.620;2022-12-26T19:16:10;9.17;89.20
69006;SHT31;56061;51.748;19.620;2022-12-26T19:18:37;9.15;89.23
69006;SHT31;56061;51.748;19.620;2022-12-26T19:21:04;9.13;89.31
69006;SHT31;56061;51.748;19.620;2022-12-26T19:23:38;9.11;89.39
69006;SHT31;56061;51.748;19.620;2022-12-26T19:26:11;9.10;89.42
69006;SHT31;56061;51.748;19.620;2022-12-26T19:28:40;9.10;89.46
69006;SHT31;56061;51.748;19.620;2022-12-26T19:31:07;9.09;89.54
69006;SHT31;56061;51.748;19.620;2022-12-26T19:33:37;9.09;89.59
69006;SHT31;56061;51.748;19.620;2022-12-26T19:36:04;9.07;89.60
69006;SHT31;56061;51.748;19.620;2022-12-26T19:38:32;9.04;89.61
69006;SHT31;56061;51.748;19.620;2022-12-26T19:41:04;9.01;89.63
69006;SHT31;56061;51.748;19.620;2022-12-26T19:43:36;8.98;89.68
69006;SHT31;56061;51.748;19.620;2022-12-26T19:46:06;8.96;89.69
69006;SHT31;56061;51.748;19.620;2022-12-26T19:48:36;8.95;89.70
69006;SHT31;56061;51.748;19.620;2022-12-26T19:51:05;8.94;89.70
69006;SHT31;56061;51.748;19.620;2022-12-26T19:53:35;8.93;89.69
69006;SHT31;56061;51.748;19.620;2022-12-26T19:56:10;8.93;89.70